sensor_id;sensor_type;location;lat;lon;timestamp;temperature;humidity
3053;DHT22;1536;51.098;6.414;2023-08-24T00:01:51;20.20;99.90
3053;DHT22;1536;51.098;6.414;2023-08-24T00:04:18;20.20;99.90
3053;DHT22;1536;51.098;6.414;2023-08-24T00:06:45;20.20;99.90
3053;DHT22;1536;51.098;6.414;2023-08-24T00:09:12;20.20;99.90
3053;DHT22;1536;51.098;6.414;2023-08-24T00:11:40;20.10;99.90
3053;DHT22;1536;51.098;6.414;2023-08-24T00:14:09;20.10;99.90
3053;DHT22;1536;51.098;6.414;2023-08-24T00:16:35;20.10;99.90
3053;DHT22;1536;51.098;6.414;2023-08-24T00:19:02;20.10;99.90
3053;DHT22;1536;51.098;6.414;2023-08-24T00:21:29;20.00;99.90
3053;DHT22;1536;51.098;6.414;2023-08-24T00:23:55;20.00;99.90
3053;DHT22;1536;51.098;6.414;2023-08-24T00:26:22;20.00;99.90
3053;DHT22;1536;51.098;6.414;2023-08-24T00:28:49;20.00;99.90
3053;DHT22;1536;51.098;6.414;2023-08-24T00:31:17;20.00;99.90
3053;DHT22;1536;51.098;6.414;2023-08-24T00:33:44;20.00;99.90
3053;DHT22;1536;51.098;6.414;2023-08-24T00:36:11;20.00;99.90
3053;DHT22;1536;51.098;6.414;2023-08-24T00:38:37;20.00;99.90
3053;DHT22;1536;51.098;6.414;2023-08-24T00:41:04;20.00;99.90
3053;DHT22;1536;51.098;6.414;2023-08-24T00:43:31;19.90;99.90
3053;DHT22;1536;51.098;6.414;2023-08-24T00:46:01;19.90;99.90
3053;DHT22;1536;51.098;6.414;2023-08-24T00:48:31;19.90;99.90
3053;DHT22;1536;51.098;6.414;2023-08-24T00:51:00;19.90;99.90
3053;DHT22;1536;51.098;6.414;2023-08-24T00:53:28;19.90;99.90
3053;DHT22;1536;51.098;6.414;2023-08-24T00:55:56;19.90;99.90
3053;DHT22;1536;51.098;6.414;2023-08-24T00:58:23;19.90;99.90
3053;DHT22;1536;51.098;6.414;2023-08-24T01:00:51;19.90;99.90
3053;DHT22;1536;51.098;6.414;2023-08-24T01:03:19;19.80;99.90
3053;DHT22;1536;51.098;6.414;2023-08-24T01:05:47;19.80;99.90
3053;DHT22;1536;51.098;6.414;2023-08-24T01:08:13;19.80;99.90
3053;DHT22;1536;51.098;6.414;2023-08-24T01:10:45;19.80;99.90
3053;DHT22;1536;51.098;6.414;2023-08-24T01:13:18;19.80;99.90
3053;DHT22;1536;51.098;6.414;2023-08-24T01:15:51;19.80;99.90
3053;DHT22;1536;51.098;6.414;2023-08-24T01:18:23;19.70;99.90
3053;DHT22;1536;51.098;6.414;2023-08-24T01:20:54;19.70;99.90
3053;DHT22;1536;51.098;6.414;2023-08-24T01:23:33;19.70;99.90
3053;DHT22;1536;51.098;6.414;2023-08-24T01:26:10;19.70;99.90
3053;DHT22;1536;51.098;6.414;2023-08-24T01:28:37;19.70;99.90
3053;DHT22;1536;51.098;6.414;2023-08-24T01:31:05;19.60;99.90
3053;DHT22;1536;51.098;6.414;2023-08-24T01:33:33;19.60;99.90
3053;DHT22;1536;51.098;6.414;2023-08-24T01:36:00;19.60;99.90
3053;DHT22;1536;51.098;6.414;2023-08-24T01:38:29;19.60;99.90
3053;DHT22;1536;51.098;6.414;2023-08-24T01:41:08;19.60;99.90
3053;DHT22;1536;51.098;6.414;2023-08-24T01:43:36;19.60;99.90
3053;DHT22;1536;51.098;6.414;2023-08-24T01:46:04;19.60;99.90
3053;DHT22;1536;51.098;6.414;2023-08-24T01:48:32;19.60;99.90
3053;DHT22;1536;51.098;6.414;2023-08-24T01:51:01;19.60;99.90
3053;DHT22;1536;51.098;6.414;2023-08-24T01:53:31;19.60;99.90
3053;DHT22;1536;51.098;6.414;2023-08-24T01:55:58;19.60;99.90
3053;DHT22;1536;51.098;6.414;2023-08-24T01:58:26;19.60;99.90
3053;DHT22;1536;51.098;6.414;2023-08-24T02:00:51;19.60;99.90
3053;DHT22;1536;51.098;6.414;2023-08-24T02:03:18;19.60;99.90
3053;DHT22;1536;51.098;6.414;2023-08-24T02:05:45;19.60;99.90
3053;DHT22;1536;51.098;6.414;2023-08-24T02:08:12;19.60;99.90
3053;DHT22;1536;51.098;6.414;2023-08-24T02:10:38;19.60;99.90
3053;DHT22;1536;51.098;6.414;2023-08-24T02:13:05;19.60;99.90
3053;DHT22;1536;51.098;6.414;2023-08-24T02:15:33;19.60;99.90
3053;DHT22;1536;51.098;6.414;2023-08-24T02:18:00;19.60;99.90
3053;DHT22;1536;51.098;6.414;2023-08-24T02:20:27;19.50;99.90
3053;DHT22;1536;51.098;6.414;2023-08-24T02:22:53;19.50;99.90
3053;DHT22;1536;51.098;6.414;2023-08-24T02:25:20;19.50;99.90
3053;DHT22;1536;51.098;6.414;2023-08-24T02:27:47;19.50;99.90
3053;DHT22;1536;51.098;6.414;2023-08-24T02:30:14;19.50;99.90
3053;DHT22;1536;51.098;6.414;2023-08-24T02:32:42;19.50;99.90
3053;DHT22;1536;51.098;6.414;2023-08-24T02:35:09;19.50;99.90
3053;DHT22;1536;51.098;6.414;2023-08-24T02:37:36;19.50;99.90
3053;DHT22;1536;51.098;6.414;2023-08-24T02:40:03;19.50;99.90
3053;DHT22;1536;51.098;6.414;2023-08-24T02:42:30;19.50;99.90
3053;DHT22;1536;51.098;6.414;2023-08-24T02:44:58;19.50;99.90
3053;DHT22;1536;51.098;6.414;2023-08-24T02:47:24;19.60;99.90
3053;DHT22;1536;51.098;6.414;2023-08-24T02:49:53;19.60;99.90
3053;DHT22;1536;51.098;6.414;2023-08-24T02:52:19;19.70;99.90
3053;DHT22;1536;51.098;6.414;2023-08-24T02:54:46;19.70;99.90
3053;DHT22;1536;51.098;6.414;2023-08-24T02:57:13;19.70;99.90
3053;DHT22;1536;51.098;6.414;2023-08-24T02:59:39;19.70;99.90
3053;DHT22;1536;51.098;6.414;2023-08-24T03:02:09;19.70;99.90
3053;DHT22;1536;51.098;6.414;2023-08-24T03:04:35;19.70;99.90
3053;DHT22;1536;51.098;6.414;2023-08-24T03:07:03;19.70;99.90
3053;DHT22;1536;51.098;6.414;2023-08-24T03:09:33;19.80;99.90
3053;DHT22;1536;51.098;6.414;2023-08-24T03:11:59;19.80;99.90
3053;DHT22;1536;51.098;6.414;2023-08-24T03:14:26;19.80;99.90
3053;DHT22;1536;51.098;6.414;2023-08-24T03:16:53;19.80;99.90
3053;DHT22;1536;51.098;6.414;2023-08-24T03:19:20;19.80;99.90
3053;DHT22;1536;51.098;6.414;2023-08-24T03:21:46;19.90;99.90
3053;DHT22;1536;51.098;6.414;2023-08-24T03:24:14;19.80;99.90
3053;DHT22;1536;51.098;6.414;2023-08-24T03:26:41;19.80;99.90
3053;DHT22;1536;51.098;6.414;2023-08-24T03:29:08;19.90;99.90
3053;DHT22;1536;51.098;6.414;2023-08-24T03:31:34;19.80;99.90
3053;DHT22;1536;51.098;6.414;2023-08-24T03:34:01;19.80;99.90
3053;DHT22;1536;51.098;6.414;2023-08-24T03:36:29;19.80;99.90
3053;DHT22;1536;51.098;6.414;2023-08-24T03:38:55;19.90;99.90
3053;DHT22;1536;51.098;6.414;2023-08-24T03:41:24;19.80;99.90
3053;DHT22;1536;51.098;6.414;2023-08-24T03:43:50;19.90;99.90
3053;DHT22;1536;51.098;6.414;2023-08-24T03:46:17;19.90;99.90
3053;DHT22;1536;51.098;6.414;2023-08-24T03:48:44;20.00;99.90
3053;DHT22;1536;51.098;6.414;2023-08-24T03:51:11;20.00;99.90
3053;DHT22;1536;51.098;6.414;2023-08-24T03:53:38;20.00;99.90
3053;DHT22;1536;51.098;6.414;2023-08-24T03:56:04;20.10;99.90
3053;DHT22;1536;51.098;6.414;2023-08-24T03:58:32;20.10;99.90
3053;DHT22;1536;51.098;6.414;2023-08-24T04:00:59;20.10;99.90
3053;DHT22;1536;51.098;6.414;2023-08-24T04:03:26;20.10;99.90
3053;DHT22;1536;51.098;6.414;2023-08-24T04:05:53;20.10;99.90
3053;DHT22;1536;51.098;6.414;2023-08-24T04:08:19;20.20;99.90
3053;DHT22;1536;51.098;6.414;2023-08-24T04:10:46;20.20;99.90
3053;DHT22;1536;51.098;6.414;2023-08-24T04:13:13;20.20;99.90
3053;DHT22;1536;51.098;6.414;2023-08-24T04:15:41;20.20;99.90
3053;DHT22;1536;51.098;6.414;2023-08-24T04:18:07;20.20;99.90
3053;DHT22;1536;51.098;6.414;2023-08-24T04:20:34;20.20;99.90
3053;DHT22;1536;51.098;6.414;2023-08-24T04:23:02;20.20;99.90
3053;DHT22;1536;51.098;6.414;2023-08-24T04:25:28;20.20;99.90
3053;DHT22;1536;51.098;6.414;2023-08-24T04:27:56;20.20;99.90
3053;DHT22;1536;51.098;6.414;2023-08-24T04:30:22;20.20;99.90
3053;DHT22;1536;51.098;6.414;2023-08-24T04:32:50;20.10;99.90
3053;DHT22;1536;51.098;6.414;2023-08-24T04:35:17;20.10;99.90
3053;DHT22;1536;51.098;6.414;2023-08-24T04:37:44;20.10;99.90
3053;DHT22;1536;51.098;6.414;2023-08-24T04:40:11;20.10;99.90
3053;DHT22;1536;51.098;6.414;2023-08-24T04:42:38;20.10;99.90
3053;DHT22;1536;51.098;6.414;2023-08-24T04:45:06;20.10;99.90
3053;DHT22;1536;51.098;6.414;2023-08-24T04:47:33;20.10;99.90
3053;DHT22;1536;51.098;6.414;2023-08-24T04:50:01;20.10;99.90
3053;DHT22;1536;51.098;6.414;2023-08-24T04:52:27;20.10;99.90
3053;DHT22;1536;51.098;6.414;2023-08-24T04:54:56;20.10;99.90
3053;DHT22;1536;51.098;6.414;2023-08-24T04:57:23;20.10;99.90
3053;DHT22;1536;51.098;6.414;2023-08-24T04:59:50;20.10;99.90
3053;DHT22;1536;51.098;6.414;2023-08-24T05:02:17;20.20;99.90
3053;DHT22;1536;51.098;6.414;2023-08-24T05:04:44;20.20;99.90
3053;DHT22;1536;51.098;6.414;2023-08-24T05:07:12;20.20;99.90
3053;DHT22;1536;51.098;6.414;2023-08-24T05:09:39;20.20;99.90
3053;DHT22;1536;51.098;6.414;2023-08-24T05:12:06;20.30;99.90
3053;DHT22;1536;51.098;6.414;2023-08-24T05:14:33;20.30;99.90
3053;DHT22;1536;51.098;6.414;2023-08-24T05:17:00;20.30;99.90
3053;DHT22;1536;51.098;6.414;2023-08-24T05:19:26;20.30;99.90
3053;DHT22;1536;51.098;6.414;2023-08-24T05:21:53;20.30;99.90
3053;DHT22;1536;51.098;6.414;2023-08-24T05:24:21;20.40;99.90
3053;DHT22;1536;51.098;6.414;2023-08-24T05:26:48;20.40;99.90
3053;DHT22;1536;51.098;6.414;2023-08-24T05:29:15;20.40;99.90
3053;DHT22;1536;51.098;6.414;2023-08-24T05:31:41;20.40;99.90
3053;DHT22;1536;51.098;6.414;2023-08-24T05:34:08;20.40;99.90
3053;DHT22;1536;51.098;6.414;2023-08-24T05:36:35;20.40;99.90
3053;DHT22;1536;51.098;6.414;2023-08-24T05:39:01;20.50;99.90
3053;DHT22;1536;51.098;6.414;2023-08-24T05:41:30;20.50;99.90
3053;DHT22;1536;51.098;6.414;2023-08-24T05:43:57;20.50;99.90
3053;DHT22;1536;51.098;6.414;2023-08-24T05:46:23;20.60;99.90
3053;DHT22;1536;51.098;6.414;2023-08-24T05:48:50;20.60;99.90
3053;DHT22;1536;51.098;6.414;2023-08-24T05:51:17;20.60;99.90
3053;DHT22;1536;51.098;6.414;2023-08-24T05:53:44;20.60;99.90
3053;DHT22;1536;51.098;6.414;2023-08-24T05:56:10;20.60;99.90
3053;DHT22;1536;51.098;6.414;2023-08-24T05:58:39;20.70;99.90
3053;DHT22;1536;51.098;6.414;2023-08-24T06:01:05;20.70;99.90
3053;DHT22;1536;51.098;6.414;2023-08-24T06:03:35;20.70;99.90
3053;DHT22;1536;51.098;6.414;2023-08-24T06:06:02;20.70;99.90
3053;DHT22;1536;51.098;6.414;2023-08-24T06:08:30;20.70;99.90
3053;DHT22;1536;51.098;6.414;2023-08-24T06:10:57;20.70;99.90
3053;DHT22;1536;51.098;6.414;2023-08-24T06:13:24;20.80;99.90
3053;DHT22;1536;51.098;6.414;2023-08-24T06:15:52;20.80;99.90
3053;DHT22;1536;51.098;6.414;2023-08-24T06:18:19;20.80;99.90
3053;DHT22;1536;51.098;6.414;2023-08-24T06:20:46;20.80;99.90
3053;DHT22;1536;51.098;6.414;2023-08-24T06:23:15;20.90;99.90
3053;DHT22;1536;51.098;6.414;2023-08-24T06:25:43;20.90;99.90
3053;DHT22;1536;51.098;6.414;2023-08-24T06:28:10;21.00;99.90
3053;DHT22;1536;51.098;6.414;2023-08-24T06:30:37;21.00;99.90
3053;DHT22;1536;51.098;6.414;2023-08-24T06:33:06;21.00;99.90
3053;DHT22;1536;51.098;6.414;2023-08-24T06:35:33;21.10;99.90
3053;DHT22;1536;51.098;6.414;2023-08-24T06:38:00;21.10;99.90
3053;DHT22;1536;51.098;6.414;2023-08-24T06:40:28;21.20;99.90
3053;DHT22;1536;51.098;6.414;2023-08-24T06:42:54;21.20;99.90
3053;DHT22;1536;51.098;6.414;2023-08-24T06:45:21;21.20;99.90
3053;DHT22;1536;51.098;6.414;2023-08-24T06:47:48;21.30;99.90
3053;DHT22;1536;51.098;6.414;2023-08-24T06:50:18;21.30;99.90
3053;DHT22;1536;51.098;6.414;2023-08-24T06:52:45;21.40;99.90
3053;DHT22;1536;51.098;6.414;2023-08-24T06:55:15;21.40;99.90
3053;DHT22;1536;51.098;6.414;2023-08-24T06:57:42;21.40;99.90
3053;DHT22;1536;51.098;6.414;2023-08-24T07:00:09;21.50;99.90
3053;DHT22;1536;51.098;6.414;2023-08-24T07:02:40;21.50;99.90
3053;DHT22;1536;51.098;6.414;2023-08-24T07:05:07;21.60;99.90
3053;DHT22;1536;51.098;6.414;2023-08-24T07:07:35;21.60;99.90
3053;DHT22;1536;51.098;6.414;2023-08-24T07:10:03;21.70;99.90
3053;DHT22;1536;51.098;6.414;2023-08-24T07:12:30;21.70;99.90
3053;DHT22;1536;51.098;6.414;2023-08-24T07:14:56;21.80;99.90
3053;DHT22;1536;51.098;6.414;2023-08-24T07:17:23;21.90;99.90
3053;DHT22;1536;51.098;6.414;2023-08-24T07:19:50;21.90;99.90
3053;DHT22;1536;51.098;6.414;2023-08-24T07:22:17;22.00;99.90
3053;DHT22;1536;51.098;6.414;2023-08-24T07:24:46;22.00;99.90
3053;DHT22;1536;51.098;6.414;2023-08-24T07:27:19;22.10;99.90
3053;DHT22;1536;51.098;6.414;2023-08-24T07:29:46;22.10;99.90
3053;DHT22;1536;51.098;6.414;2023-08-24T07:32:16;22.20;99.90
3053;DHT22;1536;51.098;6.414;2023-08-24T07:34:43;22.30;99.90
3053;DHT22;1536;51.098;6.414;2023-08-24T07:37:09;22.30;99.90
3053;DHT22;1536;51.098;6.414;2023-08-24T07:39:37;22.40;99.90
3053;DHT22;1536;51.098;6.414;2023-08-24T07:42:05;22.40;99.90
3053;DHT22;1536;51.098;6.414;2023-08-24T07:44:32;22.50;99.90
3053;DHT22;1536;51.098;6.414;2023-08-24T07:46:59;22.50;99.90
3053;DHT22;1536;51.098;6.414;2023-08-24T07:49:26;22.60;99.90
3053;DHT22;1536;51.098;6.414;2023-08-24T07:51:53;22.70;99.90
3053;DHT22;1536;51.098;6.414;2023-08-24T07:54:21;22.70;99.90
3053;DHT22;1536;51.098;6.414;2023-08-24T07:56:47;22.80;99.90
3053;DHT22;1536;51.098;6.414;2023-08-24T07:59:16;22.80;99.90
3053;DHT22;1536;51.098;6.414;2023-08-24T08:01:42;22.90;99.90
3053;DHT22;1536;51.098;6.414;2023-08-24T08:04:09;22.90;99.90
3053;DHT22;1536;51.098;6.414;2023-08-24T08:06:36;23.00;99.90
3053;DHT22;1536;51.098;6.414;2023-08-24T08:09:03;23.00;99.90
3053;DHT22;1536;51.098;6.414;2023-08-24T08:11:31;23.10;99.90
3053;DHT22;1536;51.098;6.414;2023-08-24T08:13:57;23.10;99.90
3053;DHT22;1536;51.098;6.414;2023-08-24T08:16:25;23.20;99.90
3053;DHT22;1536;51.098;6.414;2023-08-24T08:18:52;23.30;99.90
3053;DHT22;1536;51.098;6.414;2023-08-24T08:21:19;23.40;99.90
3053;DHT22;1536;51.098;6.414;2023-08-24T08:23:46;23.50;99.90
3053;DHT22;1536;51.098;6.414;2023-08-24T08:26:13;23.60;99.90
3053;DHT22;1536;51.098;6.414;2023-08-24T08:28:40;23.60;99.90
3053;DHT22;1536;51.098;6.414;2023-08-24T08:31:07;23.70;99.90
3053;DHT22;1536;51.098;6.414;2023-08-24T08:33:35;23.80;99.90
3053;DHT22;1536;51.098;6.414;2023-08-24T08:36:02;23.90;99.90
3053;DHT22;1536;51.098;6.414;2023-08-24T08:38:28;24.10;99.90
3053;DHT22;1536;51.098;6.414;2023-08-24T08:40:56;24.10;99.90
3053;DHT22;1536;51.098;6.414;2023-08-24T08:43:25;24.20;99.90
3053;DHT22;1536;51.098;6.414;2023-08-24T08:45:53;24.30;99.90
3053;DHT22;1536;51.098;6.414;2023-08-24T08:48:22;24.40;99.90
3053;DHT22;1536;51.098;6.414;2023-08-24T08:50:52;24.40;99.90
3053;DHT22;1536;51.098;6.414;2023-08-24T08:53:22;24.50;99.90
3053;DHT22;1536;51.098;6.414;2023-08-24T08:55:51;24.60;99.90
3053;DHT22;1536;51.098;6.414;2023-08-24T08:58:18;24.60;99.90
3053;DHT22;1536;51.098;6.414;2023-08-24T09:00:47;24.70;99.90
3053;DHT22;1536;51.098;6.414;2023-08-24T09:03:14;24.80;99.90
3053;DHT22;1536;51.098;6.414;2023-08-24T09:05:44;24.90;99.90
3053;DHT22;1536;51.098;6.414;2023-08-24T09:08:16;25.00;99.90
3053;DHT22;1536;51.098;6.414;2023-08-24T09:10:42;25.00;99.90
3053;DHT22;1536;51.098;6.414;2023-08-24T09:13:09;25.10;99.90
3053;DHT22;1536;51.098;6.414;2023-08-24T09:15:36;25.10;99.90
3053;DHT22;1536;51.098;6.414;2023-08-24T09:18:04;25.20;99.90
3053;DHT22;1536;51.098;6.414;2023-08-24T09:20:30;25.30;99.90
3053;DHT22;1536;51.098;6.414;2023-08-24T09:22:58;25.30;99.90
3053;DHT22;1536;51.098;6.414;2023-08-24T09:25:26;25.40;99.90
3053;DHT22;1536;51.098;6.414;2023-08-24T09:27:59;25.40;99.90
3053;DHT22;1536;51.098;6.414;2023-08-24T09:30:30;25.50;99.90
3053;DHT22;1536;51.098;6.414;2023-08-24T09:33:01;25.50;99.90
3053;DHT22;1536;51.098;6.414;2023-08-24T09:35:28;25.60;99.90
3053;DHT22;1536;51.098;6.414;2023-08-24T09:37:55;25.60;99.90
3053;DHT22;1536;51.098;6.414;2023-08-24T09:40:24;25.60;99.90
3053;DHT22;1536;51.098;6.414;2023-08-24T09:42:52;25.70;99.90
3053;DHT22;1536;51.098;6.414;2023-08-24T09:45:19;25.80;99.90
3053;DHT22;1536;51.098;6.414;2023-08-24T09:47:49;25.80;99.90
3053;DHT22;1536;51.098;6.414;2023-08-24T09:50:16;25.80;99.90
3053;DHT22;1536;51.098;6.414;2023-08-24T09:52:42;25.80;99.90
3053;DHT22;1536;51.098;6.414;2023-08-24T09:55:11;25.90;99.90
3053;DHT22;1536;51.098;6.414;2023-08-24T09:57:39;26.00;99.90
3053;DHT22;1536;51.098;6.414;2023-08-24T10:00:09;26.00;99.90
3053;DHT22;1536;51.098;6.414;2023-08-24T10:02:37;26.10;99.90
3053;DHT22;1536;51.098;6.414;2023-08-24T10:05:08;26.10;99.90
3053;DHT22;1536;51.098;6.414;2023-08-24T10:07:37;26.20;99.90
3053;DHT22;1536;51.098;6.414;2023-08-24T10:10:08;26.20;99.90
3053;DHT22;1536;51.098;6.414;2023-08-24T10:12:41;26.30;99.90
3053;DHT22;1536;51.098;6.414;2023-08-24T10:15:11;26.30;99.90
3053;DHT22;1536;51.098;6.414;2023-08-24T10:17:39;26.30;99.90
3053;DHT22;1536;51.098;6.414;2023-08-24T10:20:07;26.40;99.90
3053;DHT22;1536;51.098;6.414;2023-08-24T10:22:36;26.40;99.90
3053;DHT22;1536;51.098;6.414;2023-08-24T10:25:07;26.50;99.90
3053;DHT22;1536;51.098;6.414;2023-08-24T10:27:34;26.50;99.90
3053;DHT22;1536;51.098;6.414;2023-08-24T10:30:01;26.50;99.90
3053;DHT22;1536;51.098;6.414;2023-08-24T10:32:30;26.60;99.90
3053;DHT22;1536;51.098;6.414;2023-08-24T10:34:57;26.60;99.90
3053;DHT22;1536;51.098;6.414;2023-08-24T10:37:27;26.70;99.90
3053;DHT22;1536;51.098;6.414;2023-08-24T10:39:54;26.70;99.90
3053;DHT22;1536;51.098;6.414;2023-08-24T10:42:20;26.70;99.90
3053;DHT22;1536;51.098;6.414;2023-08-24T10:44:48;26.80;99.90
3053;DHT22;1536;51.098;6.414;2023-08-24T10:47:17;26.90;99.90
3053;DHT22;1536;51.098;6.414;2023-08-24T10:49:57;26.90;99.90
3053;DHT22;1536;51.098;6.414;2023-08-24T10:52:25;26.90;99.90
3053;DHT22;1536;51.098;6.414;2023-08-24T10:54:54;27.00;99.90
3053;DHT22;1536;51.098;6.414;2023-08-24T10:57:22;27.00;99.90
3053;DHT22;1536;51.098;6.414;2023-08-24T10:59:59;27.00;99.90
3053;DHT22;1536;51.098;6.414;2023-08-24T11:02:26;27.00;99.90
3053;DHT22;1536;51.098;6.414;2023-08-24T11:05:17;27.00;99.90
3053;DHT22;1536;51.098;6.414;2023-08-24T11:07:49;27.00;99.90
3053;DHT22;1536;51.098;6.414;2023-08-24T11:10:16;27.00;99.90
3053;DHT22;1536;51.098;6.414;2023-08-24T11:13:09;26.90;99.90
3053;DHT22;1536;51.098;6.414;2023-08-24T11:15:41;26.90;99.90
3053;DHT22;1536;51.098;6.414;2023-08-24T11:18:15;26.90;99.90
3053;DHT22;1536;51.098;6.414;2023-08-24T11:20:44;26.80;99.90
3053;DHT22;1536;51.098;6.414;2023-08-24T11:23:12;26.80;99.90
3053;DHT22;1536;51.098;6.414;2023-08-24T11:25:39;26.80;99.90
3053;DHT22;1536;51.098;6.414;2023-08-24T11:28:06;26.80;99.90
3053;DHT22;1536;51.098;6.414;2023-08-24T11:30:33;26.80;99.90
3053;DHT22;1536;51.098;6.414;2023-08-24T11:33:00;26.80;99.90
3053;DHT22;1536;51.098;6.414;2023-08-24T11:35:28;26.80;99.90
3053;DHT22;1536;51.098;6.414;2023-08-24T11:37:56;26.80;99.90
3053;DHT22;1536;51.098;6.414;2023-08-24T11:40:23;26.80;99.90
3053;DHT22;1536;51.098;6.414;2023-08-24T11:42:53;26.80;99.90
3053;DHT22;1536;51.098;6.414;2023-08-24T11:45:21;26.80;99.90
3053;DHT22;1536;51.098;6.414;2023-08-24T11:47:48;26.70;99.90
3053;DHT22;1536;51.098;6.414;2023-08-24T11:50:15;26.60;99.90
3053;DHT22;1536;51.098;6.414;2023-08-24T11:52:43;26.50;99.90
3053;DHT22;1536;51.098;6.414;2023-08-24T11:55:11;26.50;99.90
3053;DHT22;1536;51.098;6.414;2023-08-24T11:57:38;26.40;99.90
3053;DHT22;1536;51.098;6.414;2023-08-24T12:00:06;26.30;99.90
3053;DHT22;1536;51.098;6.414;2023-08-24T12:02:34;26.20;99.90
3053;DHT22;1536;51.098;6.414;2023-08-24T12:05:06;26.10;99.90
3053;DHT22;1536;51.098;6.414;2023-08-24T12:07:33;26.00;99.90
3053;DHT22;1536;51.098;6.414;2023-08-24T12:10:00;25.90;99.90
3053;DHT22;1536;51.098;6.414;2023-08-24T12:12:29;25.80;99.90
3053;DHT22;1536;51.098;6.414;2023-08-24T12:14:55;25.80;99.90
3053;DHT22;1536;51.098;6.414;2023-08-24T12:17:23;25.70;99.90
3053;DHT22;1536;51.098;6.414;2023-08-24T12:19:57;25.60;99.90
3053;DHT22;1536;51.098;6.414;2023-08-24T12:22:24;25.60;99.90
3053;DHT22;1536;51.098;6.414;2023-08-24T12:24:51;25.50;99.90
3053;DHT22;1536;51.098;6.414;2023-08-24T12:27:18;25.50;99.90
3053;DHT22;1536;51.098;6.414;2023-08-24T12:29:46;25.50;99.90
3053;DHT22;1536;51.098;6.414;2023-08-24T12:32:14;25.50;99.90
3053;DHT22;1536;51.098;6.414;2023-08-24T12:34:41;25.50;99.90
3053;DHT22;1536;51.098;6.414;2023-08-24T12:37:09;25.50;99.90
3053;DHT22;1536;51.098;6.414;2023-08-24T12:39:36;25.50;99.90
3053;DHT22;1536;51.098;6.414;2023-08-24T12:42:05;25.50;99.90
3053;DHT22;1536;51.098;6.414;2023-08-24T12:44:32;25.50;99.90
3053;DHT22;1536;51.098;6.414;2023-08-24T12:47:00;25.50;99.90
3053;DHT22;1536;51.098;6.414;2023-08-24T12:49:27;25.50;99.90
3053;DHT22;1536;51.098;6.414;2023-08-24T12:51:54;25.50;99.90
3053;DHT22;1536;51.098;6.414;2023-08-24T12:54:21;25.50;99.90
3053;DHT22;1536;51.098;6.414;2023-08-24T12:56:50;25.50;99.90
3053;DHT22;1536;51.098;6.414;2023-08-24T12:59:17;25.50;99.90
3053;DHT22;1536;51.098;6.414;2023-08-24T13:01:44;25.50;99.90
3053;DHT22;1536;51.098;6.414;2023-08-24T13:04:12;25.50;99.90
3053;DHT22;1536;51.098;6.414;2023-08-24T13:06:38;25.50;99.90
3053;DHT22;1536;51.098;6.414;2023-08-24T13:09:05;25.50;99.90
3053;DHT22;1536;51.098;6.414;2023-08-24T13:11:32;25.50;99.90
3053;DHT22;1536;51.098;6.414;2023-08-24T13:13:59;25.40;99.90
3053;DHT22;1536;51.098;6.414;2023-08-24T13:16:25;25.40;99.90
3053;DHT22;1536;51.098;6.414;2023-08-24T13:18:53;25.30;99.90
3053;DHT22;1536;51.098;6.414;2023-08-24T13:21:21;25.30;99.90
3053;DHT22;1536;51.098;6.414;2023-08-24T13:23:48;25.30;99.90
3053;DHT22;1536;51.098;6.414;2023-08-24T13:26:18;25.30;99.90
3053;DHT22;1536;51.098;6.414;2023-08-24T13:28:46;25.20;99.90
3053;DHT22;1536;51.098;6.414;2023-08-24T13:31:13;25.20;99.90
3053;DHT22;1536;51.098;6.414;2023-08-24T13:33:39;25.20;99.90
3053;DHT22;1536;51.098;6.414;2023-08-24T13:36:06;25.20;99.90
3053;DHT22;1536;51.098;6.414;2023-08-24T13:38:34;25.20;99.90
3053;DHT22;1536;51.098;6.414;2023-08-24T13:41:02;25.20;99.90
3053;DHT22;1536;51.098;6.414;2023-08-24T13:43:29;25.20;99.90
3053;DHT22;1536;51.098;6.414;2023-08-24T13:45:55;25.20;99.90
3053;DHT22;1536;51.098;6.414;2023-08-24T13:48:22;25.20;99.90
3053;DHT22;1536;51.098;6.414;2023-08-24T13:50:50;25.20;99.90
3053;DHT22;1536;51.098;6.414;2023-08-24T13:53:18;25.20;99.90
3053;DHT22;1536;51.098;6.414;2023-08-24T13:55:47;25.20;99.90
3053;DHT22;1536;51.098;6.414;2023-08-24T13:58:13;25.10;99.90
3053;DHT22;1536;51.098;6.414;2023-08-24T14:00:40;25.10;99.90
3053;DHT22;1536;51.098;6.414;2023-08-24T14:03:07;25.10;99.90
3053;DHT22;1536;51.098;6.414;2023-08-24T14:05:38;25.00;99.90
3053;DHT22;1536;51.098;6.414;2023-08-24T14:08:05;25.00;99.90
3053;DHT22;1536;51.098;6.414;2023-08-24T14:10:33;25.00;99.90
3053;DHT22;1536;51.098;6.414;2023-08-24T14:13:01;25.00;99.90
3053;DHT22;1536;51.098;6.414;2023-08-24T14:15:28;25.00;99.90
3053;DHT22;1536;51.098;6.414;2023-08-24T14:17:55;24.90;99.90
3053;DHT22;1536;51.098;6.414;2023-08-24T14:20:22;24.90;99.90
3053;DHT22;1536;51.098;6.414;2023-08-24T14:22:49;24.90;99.90
3053;DHT22;1536;51.098;6.414;2023-08-24T14:25:16;24.80;99.90
3053;DHT22;1536;51.098;6.414;2023-08-24T14:27:43;24.80;99.90
3053;DHT22;1536;51.098;6.414;2023-08-24T14:30:13;24.70;99.90
3053;DHT22;1536;51.098;6.414;2023-08-24T14:32:40;24.60;99.90
3053;DHT22;1536;51.098;6.414;2023-08-24T14:35:08;24.60;99.90
3053;DHT22;1536;51.098;6.414;2023-08-24T14:37:34;24.60;99.90
3053;DHT22;1536;51.098;6.414;2023-08-24T14:40:01;24.60;99.90
3053;DHT22;1536;51.098;6.414;2023-08-24T14:42:29;24.50;99.90
3053;DHT22;1536;51.098;6.414;2023-08-24T14:44:56;24.50;99.90
3053;DHT22;1536;51.098;6.414;2023-08-24T14:47:24;24.40;99.90
3053;DHT22;1536;51.098;6.414;2023-08-24T14:49:51;24.40;99.90
3053;DHT22;1536;51.098;6.414;2023-08-24T14:52:18;24.30;99.90
3053;DHT22;1536;51.098;6.414;2023-08-24T14:54:45;24.30;99.90
3053;DHT22;1536;51.098;6.414;2023-08-24T14:57:11;24.30;99.90
3053;DHT22;1536;51.098;6.414;2023-08-24T14:59:39;24.20;99.90
3053;DHT22;1536;51.098;6.414;2023-08-24T15:02:05;24.20;99.90
3053;DHT22;1536;51.098;6.414;2023-08-24T15:04:33;24.10;99.90
3053;DHT22;1536;51.098;6.414;2023-08-24T15:07:00;24.10;99.90
3053;DHT22;1536;51.098;6.414;2023-08-24T15:09:27;24.00;99.90
3053;DHT22;1536;51.098;6.414;2023-08-24T15:11:54;23.90;99.90
3053;DHT22;1536;51.098;6.414;2023-08-24T15:14:21;23.90;99.90
3053;DHT22;1536;51.098;6.414;2023-08-24T15:16:48;23.90;99.90
3053;DHT22;1536;51.098;6.414;2023-08-24T15:19:14;23.80;99.90
3053;DHT22;1536;51.098;6.414;2023-08-24T15:21:42;23.80;99.90
3053;DHT22;1536;51.098;6.414;2023-08-24T15:24:09;23.70;99.90
3053;DHT22;1536;51.098;6.414;2023-08-24T15:26:36;23.70;99.90
3053;DHT22;1536;51.098;6.414;2023-08-24T15:29:11;23.60;99.90
3053;DHT22;1536;51.098;6.414;2023-08-24T15:31:39;23.60;99.90
3053;DHT22;1536;51.098;6.414;2023-08-24T15:34:06;23.60;99.90
3053;DHT22;1536;51.098;6.414;2023-08-24T15:36:33;23.60;99.90
3053;DHT22;1536;51.098;6.414;2023-08-24T15:39:01;23.50;99.90
3053;DHT22;1536;51.098;6.414;2023-08-24T15:41:29;23.50;99.90
3053;DHT22;1536;51.098;6.414;2023-08-24T15:43:56;23.50;99.90
3053;DHT22;1536;51.098;6.414;2023-08-24T15:46:22;23.40;99.90
3053;DHT22;1536;51.098;6.414;2023-08-24T15:48:49;23.40;99.90
3053;DHT22;1536;51.098;6.414;2023-08-24T15:51:21;23.40;99.90
3053;DHT22;1536;51.098;6.414;2023-08-24T15:53:48;23.40;99.90
3053;DHT22;1536;51.098;6.414;2023-08-24T15:56:16;23.40;99.90
3053;DHT22;1536;51.098;6.414;2023-08-24T15:58:42;23.40;99.90
3053;DHT22;1536;51.098;6.414;2023-08-24T16:01:09;23.40;99.90
3053;DHT22;1536;51.098;6.414;2023-08-24T16:03:36;23.40;99.90
3053;DHT22;1536;51.098;6.414;2023-08-24T16:06:03;23.30;99.90